Orto / Ocaso: 05:18 / 19:27 UTC (Datos para LEAX 27-07-2017)

[fuente: ADDS]

METAR:


LEMG 270200Z 30003KT CAVOK 22/20 Q1015 NOSIG =
LEGR 270200Z AUTO 35001KT 9999 NCD 19/09 Q1017 =
LEZL 270200Z 19009KT 150V230 CAVOK 23/18 Q1013 NOSIG =
LEAM 270200Z AUTO 00000KT 9999 NCD 24/21 Q1014 =
LEBA 270200Z AUTO 00000KT 9999 NCD 22/15 Q1013 =
LEJR 270200Z AUTO VRB01KT 9000 NCD 20/18 Q1014 =
GEML 270200Z AUTO 06002KT 9999 BKN007/// BKN012/// 25/23 Q1015 =
LXGB 270150Z AUTO 04005KT 8000 // NCD 22/20 Q1014 =

TAFOR:


TAF LEMG 262300Z 2700/2724 12006KT CAVOK TX30/2713Z TN22/2705Z BECMG 2700/2702 VRB02KT BECMG 2707/2709 13008KT =
TAF LEGR 270200Z 2703/2803 VRB02KT CAVOK TX38/2715Z TN18/2705Z PROB40 TEMPO 2712/2720 28010KT =
TAF LEZL 270200Z 2703/2803 22004KT CAVOK TX37/2715Z TN19/2706Z =
TAF LEAM 270200Z 2703/2803 VRB02KT CAVOK TX30/2713Z TN22/2706Z BECMG 2709/2711 19010KT BECMG 2718/2720 VRB02KT =
TAF LEBA 270200Z 2703/2712 VRB02KT CAVOK =
TAF LEJR 262300Z 2700/2724 VRB02KT CAVOK TX37/2714Z TN18/2706Z TEMPO 2712/2720 29010KT PROB30 TEMPO 2702/2709 3000 BR BKN012 =
TAF GEML 270200Z 2703/2803 08004KT 9999 FEW015 TX29/2714Z TN23/2705Z TEMPO 2703/2710 4000 BR BKN010 =

Recuerde que, aunque regularmente actualizada, la información meteorológica aquí presentada no debe ser utilizada para la planificación de vuelos. Si lo desea, puede consultar la información meteorológica adecuada, tanto de aeródromos como en ruta, por las vías oficialmente establecidas en la legislación -> AQUí